createdAt,value
2018-12-26T00:00:12.595Z,2.20
2018-12-26T00:02:42.114Z,2.40
2018-12-26T00:05:11.550Z,2.10
2018-12-26T00:07:40.958Z,2.40
2018-12-26T00:10:10.388Z,2.10
2018-12-26T00:12:39.878Z,2.10
2018-12-26T00:15:09.899Z,2.00
2018-12-26T00:17:39.472Z,2.20
2018-12-26T00:20:09.068Z,2.20
2018-12-26T00:22:38.963Z,2.20
2018-12-26T00:25:08.956Z,1.90
2018-12-26T00:27:38.990Z,2.10
2018-12-26T00:30:08.904Z,2.20
2018-12-26T00:32:38.343Z,2.20
2018-12-26T00:35:07.745Z,2.20
2018-12-26T00:37:37.137Z,1.90
2018-12-26T00:40:07.121Z,2.10
2018-12-26T00:42:36.561Z,2.00
2018-12-26T00:45:06.796Z,2.10
2018-12-26T00:47:36.275Z,2.00
2018-12-26T00:50:05.805Z,2.20
2018-12-26T00:52:35.285Z,2.10
2018-12-26T00:55:04.983Z,2.00
2018-12-26T00:57:34.474Z,2.20
2018-12-26T01:00:03.965Z,2.20
2018-12-26T01:02:33.711Z,1.90
2018-12-26T01:05:03.372Z,2.10
2018-12-26T01:07:32.955Z,2.00
2018-12-26T01:10:02.491Z,2.30
2018-12-26T01:12:32.039Z,2.20
2018-12-26T01:15:01.615Z,1.90
2018-12-26T01:17:31.120Z,1.80
2018-12-26T01:20:00.567Z,2.20
2018-12-26T01:22:30.038Z,2.20
2018-12-26T01:24:59.734Z,2.30
2018-12-26T01:27:29.206Z,2.00
2018-12-26T01:29:59.016Z,2.10
2018-12-26T01:32:28.726Z,1.90
2018-12-26T01:34:58.856Z,2.00
2018-12-26T01:37:28.294Z,2.20
2018-12-26T01:39:58.110Z,2.20
2018-12-26T01:42:27.548Z,1.90
2018-12-26T01:44:56.955Z,1.80
2018-12-26T01:47:26.384Z,2.20
2018-12-26T01:49:55.829Z,2.00
2018-12-26T01:52:25.248Z,1.90
2018-12-26T01:54:54.991Z,1.90
2018-12-26T01:57:24.457Z,2.10
2018-12-26T01:59:53.868Z,2.10
2018-12-26T02:02:23.392Z,1.80
2018-12-26T02:04:52.840Z,2.30
2018-12-26T02:07:22.251Z,1.90
2018-12-26T02:09:52.170Z,1.80
2018-12-26T02:12:21.581Z,1.90
2018-12-26T02:14:51.318Z,2.30
2018-12-26T02:17:21.026Z,2.00
2018-12-26T02:19:50.503Z,2.20
2018-12-26T02:22:20.231Z,2.30
2018-12-26T02:24:49.635Z,2.20
2018-12-26T02:27:19.077Z,2.50
2018-12-26T02:29:48.883Z,2.70
2018-12-26T02:32:18.573Z,2.50
2018-12-26T02:34:48.007Z,2.20
2018-12-26T02:37:17.620Z,2.40
2018-12-26T02:39:47.069Z,2.70
2018-12-26T02:42:16.695Z,2.70
2018-12-26T02:44:46.153Z,2.40
2018-12-26T02:47:15.883Z,2.50
2018-12-26T02:49:45.333Z,2.20
2018-12-26T02:52:14.751Z,2.20
2018-12-26T02:54:44.891Z,2.30
2018-12-26T02:57:14.311Z,2.20
2018-12-26T02:59:43.737Z,2.20
2018-12-26T03:02:13.130Z,2.50
2018-12-26T03:04:42.933Z,2.50
2018-12-26T03:07:12.389Z,2.20
2018-12-26T03:09:41.790Z,2.50
2018-12-26T03:12:11.234Z,2.10
2018-12-26T03:14:40.570Z,2.40
2018-12-26T03:17:10.096Z,2.40
2018-12-26T03:19:39.943Z,2.30
2018-12-26T03:22:09.404Z,1.90
2018-12-26T03:24:39.106Z,1.80
2018-12-26T03:27:08.871Z,2.00
2018-12-26T03:29:38.298Z,2.00
2018-12-26T03:32:07.759Z,1.60
2018-12-26T03:34:37.159Z,1.80
2018-12-26T03:37:06.984Z,1.80
2018-12-26T03:39:36.382Z,1.30
2018-12-26T03:42:05.800Z,1.30
2018-12-26T03:44:35.998Z,1.30
2018-12-26T03:47:06.412Z,1.30
2018-12-26T03:49:35.757Z,1.30
2018-12-26T03:52:05.226Z,1.30
2018-12-26T03:54:35.003Z,1.30
2018-12-26T03:57:06.306Z,1.20
2018-12-26T03:59:35.481Z,1.20
2018-12-26T04:02:05.011Z,1.60
2018-12-26T04:04:34.526Z,1.10
2018-12-26T04:07:04.006Z,1.60
2018-12-26T04:09:33.450Z,1.30
2018-12-26T04:12:02.862Z,1.10
2018-12-26T04:14:32.291Z,1.30
2018-12-26T04:17:02.014Z,1.40
2018-12-26T04:19:31.650Z,1.50
2018-12-26T04:22:01.048Z,1.50
2018-12-26T04:24:30.617Z,1.50
2018-12-26T04:27:00.051Z,1.30
2018-12-26T04:29:29.474Z,1.70
2018-12-26T04:31:58.817Z,1.30
2018-12-26T04:34:28.595Z,1.50
2018-12-26T04:36:58.086Z,1.70
2018-12-26T04:39:27.539Z,1.70
2018-12-26T04:41:56.988Z,1.80
2018-12-26T04:44:26.907Z,1.80
2018-12-26T04:46:56.705Z,1.50
2018-12-26T04:49:26.211Z,1.50
2018-12-26T04:51:55.572Z,1.50
2018-12-26T04:54:25.380Z,1.10
2018-12-26T04:56:54.783Z,1.40
2018-12-26T04:59:24.893Z,1.40
2018-12-26T05:01:54.319Z,1.10
2018-12-26T05:04:23.760Z,1.30
2018-12-26T05:06:53.213Z,1.40
2018-12-26T05:09:22.617Z,1.40
2018-12-26T05:11:52.349Z,1.10
2018-12-26T05:14:21.786Z,1.30
2018-12-26T05:16:51.481Z,1.10
2018-12-26T05:19:21.323Z,1.30
2018-12-26T05:21:51.173Z,1.10
2018-12-26T05:24:20.657Z,1.10
2018-12-26T05:26:50.144Z,0.90
2018-12-26T05:29:19.561Z,1.00
2018-12-26T05:31:49.286Z,1.10
2018-12-26T05:34:19.029Z,1.10
2018-12-26T05:36:48.461Z,1.30
2018-12-26T05:39:17.895Z,1.20
2018-12-26T05:41:47.364Z,1.10
2018-12-26T05:44:17.068Z,1.00
2018-12-26T05:46:46.890Z,1.10
2018-12-26T05:49:16.304Z,1.20
2018-12-26T05:51:46.051Z,1.40
2018-12-26T05:54:15.482Z,1.30
2018-12-26T05:56:44.932Z,1.10
2018-12-26T05:59:14.354Z,1.10
2018-12-26T06:01:43.845Z,1.20
2018-12-26T06:04:13.260Z,1.10
2018-12-26T06:06:42.865Z,1.20
2018-12-26T06:09:12.301Z,1.20
2018-12-26T06:11:41.744Z,1.10
2018-12-26T06:14:11.213Z,1.20
2018-12-26T06:16:40.680Z,1.50
2018-12-26T06:19:10.274Z,1.10
2018-12-26T06:21:39.708Z,1.30
2018-12-26T06:24:09.131Z,1.50
2018-12-26T06:26:38.540Z,1.30
2018-12-26T06:29:08.023Z,1.40
2018-12-26T06:31:37.773Z,1.30
2018-12-26T06:34:07.182Z,1.60
2018-12-26T06:36:36.662Z,1.30
2018-12-26T06:39:07.854Z,1.20
2018-12-26T06:41:37.289Z,1.20
2018-12-26T06:44:06.689Z,1.70
2018-12-26T06:46:36.261Z,1.30
2018-12-26T06:49:05.683Z,1.10
2018-12-26T06:51:35.389Z,1.60
2018-12-26T06:54:05.278Z,1.30
2018-12-26T06:56:35.615Z,1.10
2018-12-26T06:59:05.366Z,1.50
2018-12-26T07:01:35.162Z,1.10
2018-12-26T07:04:04.595Z,1.20
2018-12-26T07:06:34.016Z,1.00
2018-12-26T07:09:04.041Z,1.10
2018-12-26T07:11:33.911Z,1.10
2018-12-26T07:14:03.382Z,1.20
2018-12-26T07:16:33.077Z,1.20
2018-12-26T07:19:02.517Z,1.30
2018-12-26T07:21:31.901Z,0.90
2018-12-26T07:24:01.351Z,1.00
2018-12-26T07:26:30.817Z,1.10
2018-12-26T07:29:01.044Z,1.10
2018-12-26T07:31:31.371Z,1.10
2018-12-26T07:34:00.792Z,1.10
2018-12-26T07:36:30.510Z,1.20
2018-12-26T07:39:00.264Z,1.10
2018-12-26T07:41:30.089Z,1.00
2018-12-26T07:43:59.545Z,1.20
2018-12-26T07:46:28.949Z,1.30
2018-12-26T07:48:58.434Z,1.30
2018-12-26T07:51:28.583Z,1.40
2018-12-26T07:53:57.985Z,1.80
2018-12-26T07:56:27.813Z,1.50
2018-12-26T07:58:57.211Z,1.30
2018-12-26T08:01:26.754Z,1.30
2018-12-26T08:03:56.190Z,1.20
2018-12-26T08:06:25.643Z,1.10
2018-12-26T08:08:55.361Z,1.00
2018-12-26T08:11:24.802Z,1.00
2018-12-26T08:13:54.253Z,1.10
2018-12-26T08:16:23.688Z,1.30
2018-12-26T08:18:53.091Z,1.10
2018-12-26T08:21:22.470Z,1.40
2018-12-26T08:23:52.203Z,1.50
2018-12-26T08:26:21.627Z,1.00
2018-12-26T08:28:51.363Z,1.10
2018-12-26T08:31:21.200Z,1.30
2018-12-26T08:33:50.967Z,1.10
2018-12-26T08:36:20.379Z,1.40
2018-12-26T08:38:49.798Z,1.30
2018-12-26T08:41:19.905Z,1.50
2018-12-26T08:43:49.349Z,1.40
2018-12-26T08:46:18.759Z,1.50
2018-12-26T08:48:48.799Z,1.20
2018-12-26T08:51:18.262Z,1.40
2018-12-26T08:53:47.667Z,1.40
2018-12-26T08:56:17.145Z,1.60
2018-12-26T08:58:46.647Z,1.80
2018-12-26T09:01:16.124Z,2.20
2018-12-26T09:03:45.553Z,2.40
2018-12-26T09:06:14.928Z,1.90
2018-12-26T09:08:44.355Z,2.20
2018-12-26T09:11:14.674Z,2.90
2018-12-26T09:13:44.116Z,3.40
2018-12-26T09:16:13.497Z,3.90
2018-12-26T09:18:43.115Z,4.50
2018-12-26T09:21:12.828Z,4.30
2018-12-26T09:23:42.248Z,4.00
2018-12-26T09:26:12.834Z,4.00
2018-12-26T09:28:43.987Z,4.40
2018-12-26T09:31:13.600Z,4.20
2018-12-26T09:33:43.154Z,4.00
2018-12-26T09:36:12.548Z,4.00
2018-12-26T09:38:41.996Z,3.90
2018-12-26T09:41:11.444Z,4.00
2018-12-26T09:43:40.955Z,4.30
2018-12-26T09:46:10.714Z,4.30
2018-12-26T09:48:40.256Z,4.20
2018-12-26T09:51:09.910Z,4.70
2018-12-26T09:53:39.445Z,4.40
2018-12-26T09:56:09.127Z,4.50
2018-12-26T09:58:38.589Z,4.50
2018-12-26T10:01:08.036Z,4.40
2018-12-26T10:03:37.445Z,4.50
2018-12-26T10:06:06.846Z,4.10
2018-12-26T10:08:36.600Z,4.20
2018-12-26T10:11:05.972Z,4.60
2018-12-26T10:13:35.386Z,4.70
2018-12-26T10:16:04.911Z,4.30
2018-12-26T10:18:34.367Z,4.40
2018-12-26T10:21:03.753Z,4.20
2018-12-26T10:23:33.182Z,4.40
2018-12-26T10:26:02.610Z,4.70
2018-12-26T10:28:32.783Z,5.10
2018-12-26T10:31:02.885Z,5.20
2018-12-26T10:33:32.871Z,5.60
2018-12-26T10:36:02.314Z,5.40
2018-12-26T10:38:31.759Z,5.00
2018-12-26T10:41:01.189Z,4.90
2018-12-26T10:43:30.606Z,4.70
2018-12-26T10:46:00.405Z,4.90
2018-12-26T10:48:30.007Z,4.90
2018-12-26T10:50:59.791Z,5.10
2018-12-26T10:53:29.748Z,5.10
2018-12-26T10:55:59.189Z,4.90
2018-12-26T10:58:29.025Z,4.90
2018-12-26T11:00:58.427Z,4.90
2018-12-26T11:03:27.807Z,4.80
2018-12-26T11:05:57.582Z,5.00
2018-12-26T11:08:26.978Z,4.90
2018-12-26T11:10:56.597Z,5.20
2018-12-26T11:13:26.100Z,5.00
2018-12-26T11:15:55.491Z,5.00
2018-12-26T11:18:25.664Z,4.90
2018-12-26T11:20:55.663Z,5.20
2018-12-26T11:23:25.132Z,4.90
2018-12-26T11:25:54.572Z,4.90
2018-12-26T11:28:24.326Z,5.40
2018-12-26T11:30:54.061Z,5.20
2018-12-26T11:33:23.493Z,5.40
2018-12-26T11:35:52.941Z,5.50
2018-12-26T11:38:23.050Z,5.20
2018-12-26T11:40:52.472Z,5.20
2018-12-26T11:43:21.967Z,5.20
2018-12-26T11:45:51.427Z,5.40
2018-12-26T11:48:20.893Z,5.00
2018-12-26T11:50:50.377Z,5.00
2018-12-26T11:53:19.816Z,5.00
2018-12-26T11:55:49.642Z,4.90
2018-12-26T11:58:19.425Z,4.80
2018-12-26T12:00:48.848Z,5.00
2018-12-26T12:03:18.293Z,4.90
2018-12-26T12:05:47.703Z,4.70
2018-12-26T12:08:17.565Z,4.80
2018-12-26T12:10:47.040Z,4.70
2018-12-26T12:13:16.508Z,4.70
2018-12-26T12:15:46.266Z,4.80
2018-12-26T12:18:15.788Z,4.60
2018-12-26T12:20:45.488Z,4.70
2018-12-26T12:23:14.958Z,4.70
2018-12-26T12:25:44.484Z,4.80
2018-12-26T12:28:13.972Z,4.80
2018-12-26T12:30:43.371Z,4.60
2018-12-26T12:33:12.831Z,4.70
2018-12-26T12:35:42.271Z,5.00
2018-12-26T12:38:11.647Z,5.00
2018-12-26T12:40:41.592Z,5.20
2018-12-26T12:43:12.131Z,5.10
2018-12-26T12:45:41.604Z,5.20
2018-12-26T12:48:11.090Z,5.60
2018-12-26T12:50:40.577Z,5.40
2018-12-26T12:53:09.935Z,5.50
2018-12-26T12:55:41.905Z,5.70
2018-12-26T12:58:10.846Z,5.60
2018-12-26T13:00:40.605Z,5.60
2018-12-26T13:03:10.007Z,5.20
2018-12-26T13:05:39.487Z,5.10
2018-12-26T13:08:09.260Z,5.30
2018-12-26T13:10:38.649Z,5.00
2018-12-26T13:13:08.464Z,5.20
2018-12-26T13:15:37.915Z,5.20
2018-12-26T13:18:07.308Z,5.00
2018-12-26T13:20:36.640Z,4.90
2018-12-26T13:23:06.396Z,4.90
2018-12-26T13:25:36.576Z,5.00
2018-12-26T13:28:06.503Z,5.10
2018-12-26T13:30:36.176Z,5.30
2018-12-26T13:33:05.556Z,5.20
2018-12-26T13:35:35.081Z,5.40
2018-12-26T13:38:04.553Z,5.00
2018-12-26T13:40:34.019Z,5.00
2018-12-26T13:43:03.462Z,5.10
2018-12-26T13:45:32.836Z,5.60
2018-12-26T13:48:02.386Z,5.20
2018-12-26T13:50:32.132Z,5.60
2018-12-26T13:53:01.676Z,5.10
2018-12-26T13:55:31.519Z,5.00
2018-12-26T13:58:01.274Z,4.90
2018-12-26T14:00:30.969Z,4.70
2018-12-26T14:03:00.526Z,5.00
2018-12-26T14:05:29.939Z,5.20
2018-12-26T14:07:59.389Z,5.10
2018-12-26T14:10:28.881Z,4.70
2018-12-26T14:12:58.299Z,5.30
2018-12-26T14:15:27.713Z,5.00
2018-12-26T14:17:57.099Z,4.90
2018-12-26T14:20:26.559Z,5.10
2018-12-26T14:22:56.218Z,5.10
2018-12-26T14:25:26.206Z,4.90
2018-12-26T14:27:55.885Z,4.60
2018-12-26T14:30:25.367Z,4.70
2018-12-26T14:32:54.861Z,5.00
2018-12-26T14:35:24.294Z,5.20
2018-12-26T14:37:53.774Z,5.40
2018-12-26T14:40:23.190Z,4.90
2018-12-26T14:42:52.619Z,5.10
2018-12-26T14:45:22.096Z,4.70
2018-12-26T14:47:51.956Z,5.10
2018-12-26T14:50:21.401Z,5.00
2018-12-26T14:52:50.885Z,4.90
2018-12-26T14:55:20.323Z,4.70
2018-12-26T14:57:49.825Z,4.70
2018-12-26T15:00:20.004Z,4.40
2018-12-26T15:02:49.801Z,4.80
2018-12-26T15:05:19.265Z,4.70
2018-12-26T15:07:49.505Z,4.60
2018-12-26T15:10:19.197Z,4.70
2018-12-26T15:12:48.563Z,5.00
2018-12-26T15:15:18.527Z,5.00
2018-12-26T15:17:48.396Z,4.70
2018-12-26T15:20:17.826Z,4.30
2018-12-26T15:22:47.222Z,4.30
2018-12-26T15:25:16.768Z,4.20
2018-12-26T15:27:46.214Z,4.60
2018-12-26T15:30:15.777Z,4.70
2018-12-26T15:32:45.278Z,5.00
2018-12-26T15:35:14.973Z,4.50
2018-12-26T15:37:44.460Z,4.40
2018-12-26T15:40:14.145Z,4.00
2018-12-26T15:42:43.772Z,3.70
2018-12-26T15:45:13.250Z,3.70
2018-12-26T15:47:42.722Z,3.60
2018-12-26T15:50:12.143Z,3.30
2018-12-26T15:52:41.649Z,3.20
2018-12-26T15:55:11.095Z,3.00
2018-12-26T15:57:40.524Z,3.40
2018-12-26T16:00:11.079Z,3.80
2018-12-26T16:02:41.034Z,3.90
2018-12-26T16:05:10.557Z,3.90
2018-12-26T16:07:40.271Z,4.00
2018-12-26T16:10:10.634Z,4.00
2018-12-26T16:12:40.244Z,3.70
2018-12-26T16:15:10.470Z,3.30
2018-12-26T16:17:39.893Z,3.40
2018-12-26T16:20:10.901Z,3.30
2018-12-26T16:22:40.401Z,3.20
2018-12-26T16:25:10.375Z,2.90
2018-12-26T16:27:39.925Z,2.70
2018-12-26T16:30:10.135Z,2.30
2018-12-26T16:32:39.631Z,2.50
2018-12-26T16:35:10.362Z,2.10
2018-12-26T16:37:40.189Z,2.30
2018-12-26T16:40:09.695Z,2.20
2018-12-26T16:42:39.176Z,1.80
2018-12-26T16:45:08.709Z,2.00
2018-12-26T16:47:38.481Z,1.70
2018-12-26T16:50:08.903Z,1.60
2018-12-26T16:52:38.431Z,1.70
2018-12-26T16:55:09.252Z,1.60
2018-12-26T16:57:39.049Z,1.60
2018-12-26T17:00:09.423Z,1.50
2018-12-26T17:02:38.918Z,1.30
2018-12-26T17:05:08.421Z,1.20
2018-12-26T17:07:37.903Z,1.60
2018-12-26T17:10:08.606Z,1.50
2018-12-26T17:12:38.142Z,1.40
2018-12-26T17:15:07.594Z,1.20
2018-12-26T17:17:37.134Z,1.20
2018-12-26T17:20:06.923Z,1.30
2018-12-26T17:22:36.744Z,1.40
2018-12-26T17:25:06.209Z,2.00
2018-12-26T17:27:35.951Z,1.80
2018-12-26T17:30:05.959Z,1.90
2018-12-26T17:32:35.484Z,1.40
2018-12-26T17:35:05.619Z,2.00
2018-12-26T17:37:35.086Z,2.40
2018-12-26T17:40:05.440Z,2.30
2018-12-26T17:42:35.232Z,2.30
2018-12-26T17:45:05.600Z,2.50
2018-12-26T17:47:35.446Z,2.40
2018-12-26T17:50:42.512Z,2.30
2018-12-26T17:53:15.641Z,2.50
2018-12-26T17:56:12.224Z,2.70
2018-12-26T17:58:47.892Z,2.70
2018-12-26T18:01:41.296Z,2.30
2018-12-26T18:04:10.686Z,2.60
2018-12-26T18:06:40.157Z,2.50
2018-12-26T18:09:10.855Z,2.70
2018-12-26T18:11:40.608Z,2.90
2018-12-26T18:14:10.090Z,2.90
2018-12-26T18:16:45.868Z,2.80
2018-12-26T18:19:15.639Z,2.40
2018-12-26T18:21:45.419Z,2.70
2018-12-26T18:24:14.886Z,2.80
2018-12-26T18:26:44.646Z,2.80
2018-12-26T18:29:14.075Z,2.60
2018-12-26T18:31:43.640Z,2.80
2018-12-26T18:34:13.430Z,2.60
2018-12-26T18:36:43.276Z,2.40
2018-12-26T18:39:12.726Z,2.10
2018-12-26T18:41:42.223Z,2.00
2018-12-26T18:44:12.013Z,2.30
2018-12-26T18:46:41.537Z,2.70
2018-12-26T18:49:11.089Z,2.70
2018-12-26T18:51:40.537Z,2.70
2018-12-26T18:54:10.310Z,2.50
2018-12-26T18:56:39.769Z,2.40
2018-12-26T18:59:09.231Z,2.70
2018-12-26T19:01:38.703Z,2.50
2018-12-26T19:04:08.175Z,2.40
2018-12-26T19:06:37.639Z,2.70
2018-12-26T19:09:08.375Z,2.60
2018-12-26T19:11:38.017Z,2.40
2018-12-26T19:14:07.481Z,2.40
2018-12-26T19:16:36.952Z,2.50
2018-12-26T19:19:06.686Z,2.20
2018-12-26T19:21:36.264Z,2.50
2018-12-26T19:24:05.718Z,2.40
2018-12-26T19:26:35.198Z,2.50
2018-12-26T19:29:04.682Z,2.70
2018-12-26T19:31:39.471Z,2.60
2018-12-26T19:34:05.391Z,2.60
2018-12-26T19:36:34.904Z,2.80
2018-12-26T19:39:06.129Z,2.70
2018-12-26T19:41:35.579Z,2.80
2018-12-26T19:44:05.033Z,2.70
2018-12-26T19:46:34.555Z,2.70
2018-12-26T19:49:04.262Z,2.80
2018-12-26T19:51:34.009Z,2.30
2018-12-26T19:54:03.766Z,2.30
2018-12-26T19:56:33.294Z,2.30
2018-12-26T19:59:02.830Z,2.60
2018-12-26T20:01:32.275Z,2.50
2018-12-26T20:04:02.029Z,2.60
2018-12-26T20:06:32.403Z,2.40
2018-12-26T20:09:02.526Z,2.20
2018-12-26T20:11:32.290Z,2.40
2018-12-26T20:14:01.778Z,1.90
2018-12-26T20:16:31.590Z,2.00
2018-12-26T20:19:01.167Z,2.10
2018-12-26T20:21:30.703Z,2.30
2018-12-26T20:24:00.190Z,2.10
2018-12-26T20:26:29.895Z,1.90
2018-12-26T20:28:59.619Z,1.90
2018-12-26T20:31:29.066Z,2.00
2018-12-26T20:33:58.831Z,2.10
2018-12-26T20:36:28.319Z,2.10
2018-12-26T20:38:57.771Z,2.50
2018-12-26T20:41:27.271Z,2.60
2018-12-26T20:43:56.783Z,2.50
2018-12-26T20:46:26.258Z,2.40
2018-12-26T20:48:55.760Z,2.60
2018-12-26T20:51:26.005Z,2.50
2018-12-26T20:53:55.377Z,2.50
2018-12-26T20:56:24.842Z,2.30
2018-12-26T20:58:54.542Z,2.50
2018-12-26T21:01:24.801Z,2.40
2018-12-26T21:03:54.607Z,2.70
2018-12-26T21:06:24.374Z,2.60
2018-12-26T21:08:53.815Z,2.50
2018-12-26T21:11:23.307Z,2.30
2018-12-26T21:13:52.753Z,2.40
2018-12-26T21:16:22.239Z,2.60
2018-12-26T21:18:51.672Z,2.30
2018-12-26T21:21:21.400Z,2.30
2018-12-26T21:23:50.845Z,2.30
2018-12-26T21:26:20.289Z,2.30
2018-12-26T21:28:50.106Z,2.30
2018-12-26T21:31:19.702Z,2.40
2018-12-26T21:33:49.268Z,2.20
2018-12-26T21:36:18.910Z,2.40
2018-12-26T21:38:48.654Z,2.20
2018-12-26T21:41:19.238Z,2.60
2018-12-26T21:43:49.000Z,2.40
2018-12-26T21:46:18.539Z,2.40
2018-12-26T21:48:48.338Z,2.60
2018-12-26T21:51:18.823Z,2.10
2018-12-26T21:53:48.296Z,2.10
2018-12-26T21:56:17.842Z,2.20
2018-12-26T21:58:47.257Z,2.10
2018-12-26T22:01:17.112Z,2.20
2018-12-26T22:03:46.974Z,1.90
2018-12-26T22:06:16.776Z,2.20
2018-12-26T22:08:46.148Z,2.20
2018-12-26T22:11:15.708Z,1.90
2018-12-26T22:13:45.574Z,1.80
2018-12-26T22:16:15.026Z,2.00
2018-12-26T22:18:44.524Z,1.70
2018-12-26T22:21:14.389Z,1.70
2018-12-26T22:23:43.840Z,1.70
2018-12-26T22:26:13.273Z,2.20
2018-12-26T22:28:42.730Z,2.10
2018-12-26T22:31:12.564Z,2.00
2018-12-26T22:33:42.055Z,1.90
2018-12-26T22:36:11.520Z,2.00
2018-12-26T22:38:40.974Z,1.90
2018-12-26T22:41:10.428Z,2.00
2018-12-26T22:43:40.283Z,2.20
2018-12-26T22:46:09.708Z,2.40
2018-12-26T22:48:39.519Z,2.40
2018-12-26T22:51:08.934Z,2.20
2018-12-26T22:53:38.371Z,1.90
2018-12-26T22:56:07.750Z,2.20
2018-12-26T22:58:37.192Z,2.40
2018-12-26T23:01:06.629Z,2.10
2018-12-26T23:03:36.153Z,1.90
2018-12-26T23:06:05.647Z,2.30
2018-12-26T23:08:35.139Z,2.10
2018-12-26T23:11:04.911Z,2.20
2018-12-26T23:13:34.359Z,2.00
2018-12-26T23:16:03.829Z,2.20
2018-12-26T23:18:33.283Z,1.90
2018-12-26T23:21:02.747Z,1.80
2018-12-26T23:23:32.241Z,1.70
2018-12-26T23:26:01.962Z,1.70
2018-12-26T23:28:31.771Z,1.50
2018-12-26T23:31:01.570Z,1.80
2018-12-26T23:33:31.317Z,1.80
2018-12-26T23:36:00.699Z,1.70
2018-12-26T23:38:30.171Z,1.70
2018-12-26T23:40:59.623Z,1.60
2018-12-26T23:43:29.085Z,1.50
2018-12-26T23:45:59.149Z,1.80
2018-12-26T23:48:28.640Z,1.90
2018-12-26T23:50:58.071Z,2.10
2018-12-26T23:53:27.525Z,1.90
2018-12-26T23:55:56.976Z,1.90
2018-12-26T23:58:26.860Z,2.10
